Time;durP1;ratioP1;P1;durP2;ratioP2;P2;SDS_P1;SDS_P2;PMS_P1;PMS_P2;Temp;Humidity;BMP_temperature;BMP_pressure;BME280_temperature;BME280_humidity;BME280_pressure;Samples;Min_cycle;Max_cycle;Signal;HPM_P1;HPM_P2
2021/09/30 00:00:41;;;;;;;3.83;1.60;;;6.70;98.00;;;;;;5074883;28;20023;-69
2021/09/30 00:03:07;;;;;;;2.95;1.30;;;6.80;98.00;;;;;;5076318;28;20048;-69
2021/09/30 00:05:33;;;;;;;3.17;1.30;;;6.80;98.00;;;;;;5073932;28;20047;-70
2021/09/30 00:07:59;;;;;;;2.55;1.30;;;6.80;98.00;;;;;;5075978;28;20028;-69
2021/09/30 00:10:25;;;;;;;5.07;1.50;;;6.80;98.00;;;;;;5074400;28;20393;-70
2021/09/30 00:13:00;;;;;;;5.38;1.90;;;6.90;98.00;;;;;;5074871;28;20024;-70
2021/09/30 00:15:34;;;;;;;4.55;1.40;;;7.00;98.00;;;;;;5075829;28;20120;-70
2021/09/30 00:18:23;;;;;;;6.20;1.70;;;7.00;98.00;;;;;;5075591;28;20056;-70
2021/09/30 00:50:25;;;;;;;3.28;1.30;;;6.30;98.00;;;;;;5072298;28;20331;-69
2021/09/30 00:56:05;;;;;;;3.80;1.38;;;6.10;98.00;;;;;;5069744;28;20036;-71
2021/09/30 01:19:13;;;;;;;7.45;1.92;;;6.10;98.00;;;;;;5069262;28;20056;-69
2021/09/30 01:46:53;;;;;;;3.47;1.50;;;5.40;97.70;;;;;;5074641;28;20083;-69
2021/09/30 02:18:21;;;;;;;2.97;1.50;;;5.20;97.20;;;;;;5068838;28;19919;-69
2021/09/30 02:58:33;;;;;;;4.43;2.08;;;4.50;94.60;;;;;;5076153;28;20078;-69
2021/09/30 03:01:14;;;;;;;7.35;1.95;;;4.50;95.10;;;;;;5077136;28;20024;-69
2021/09/30 03:03:41;;;;;;;5.30;1.95;;;4.50;94.50;;;;;;5068823;28;20317;-69
2021/09/30 03:06:08;;;;;;;4.55;1.70;;;4.40;95.00;;;;;;5077441;28;20086;-69
2021/09/30 03:08:45;;;;;;;4.70;1.70;;;4.40;95.20;;;;;;5071754;28;20016;-69
2021/09/30 03:11:12;;;;;;;5.00;1.63;;;4.30;95.30;;;;;;5072132;28;20050;-70
2021/09/30 03:13:43;;;;;;;6.70;1.83;;;4.30;94.90;;;;;;5075217;28;20481;-69
2021/09/30 03:16:21;;;;;;;8.93;2.08;;;4.30;94.60;;;;;;5075111;28;20028;-71
2021/09/30 03:18:55;;;;;;;9.00;2.22;;;4.30;95.10;;;;;;5075302;28;20234;-69
2021/09/30 03:24:09;;;;;;;4.38;1.80;;;4.30;94.70;;;;;;5076508;28;20040;-69
2021/09/30 03:26:36;;;;;;;6.80;1.90;;;4.40;93.70;;;;;;5068842;28;20329;-69
2021/09/30 03:29:03;;;;;;;4.47;1.80;;;4.40;94.50;;;;;;5073390;28;20028;-68
2021/09/30 03:31:31;;;;;;;4.05;1.80;;;4.50;93.70;;;;;;5073591;28;20318;-68
2021/09/30 03:33:58;;;;;;;3.90;1.88;;;4.40;94.70;;;;;;5076681;28;20088;-69
2021/09/30 03:36:23;;;;;;;12.10;2.33;;;4.30;94.20;;;;;;5075814;28;20025;-69
2021/09/30 03:38:49;;;;;;;7.55;1.85;;;4.40;93.80;;;;;;5076093;28;20044;-71
2021/09/30 03:41:17;;;;;;;3.63;1.73;;;4.30;94.70;;;;;;5074008;28;20036;-68
2021/09/30 03:43:43;;;;;;;7.85;1.75;;;4.30;93.40;;;;;;5075999;28;20103;-69
2021/09/30 03:46:12;;;;;;;4.28;1.52;;;4.30;94.40;;;;;;5068734;28;20107;-70
2021/09/30 03:48:37;;;;;;;7.25;3.45;;;4.30;94.50;;;;;;5076258;28;20393;-69
2021/09/30 03:51:11;;;;;;;4.90;2.05;;;4.20;95.00;;;;;;5072386;28;20027;-69
2021/09/30 03:56:47;;;;;;;4.97;1.98;;;4.10;94.50;;;;;;5008952;28;20030;-69
2021/09/30 03:59:19;;;;;;;3.28;1.92;;;4.10;93.90;;;;;;5072913;28;20032;-69
2021/09/30 04:01:55;;;;;;;6.78;1.77;;;4.00;94.90;;;;;;5069450;28;20098;-70
2021/09/30 04:04:26;;;;;;;6.53;1.80;;;4.00;94.00;;;;;;5075504;28;20029;-69
2021/09/30 04:06:53;;;;;;;3.90;1.63;;;4.00;93.50;;;;;;5073019;28;20095;-69
2021/09/30 04:09:26;;;;;;;6.53;2.08;;;4.00;94.20;;;;;;5070450;28;20090;-69
2021/09/30 04:11:57;;;;;;;5.93;2.05;;;4.00;94.10;;;;;;5069723;28;20021;-69
2021/09/30 04:14:23;;;;;;;5.75;1.77;;;4.10;93.30;;;;;;5073900;28;20037;-69
2021/09/30 04:16:49;;;;;;;7.13;2.00;;;4.10;93.80;;;;;;5073712;28;20073;-69
2021/09/30 04:19:21;;;;;;;4.47;1.92;;;4.10;93.80;;;;;;5060560;28;20371;-68
2021/09/30 04:21:48;;;;;;;5.88;2.00;;;4.10;93.90;;;;;;5069757;28;20028;-69
2021/09/30 04:24:15;;;;;;;5.10;2.00;;;3.90;94.60;;;;;;5071502;28;20052;-69
2021/09/30 04:26:42;;;;;;;6.93;2.08;;;3.90;93.50;;;;;;5063080;28;20104;-69
2021/09/30 04:29:07;;;;;;;4.75;2.03;;;3.90;94.30;;;;;;5069864;28;20499;-71
2021/09/30 04:31:34;;;;;;;8.30;2.22;;;3.80;94.00;;;;;;5073444;28;20025;-69
2021/09/30 04:34:00;;;;;;;3.15;1.67;;;3.80;93.90;;;;;;5068277;28;20032;-69
2021/09/30 04:36:26;;;;;;;3.80;1.98;;;3.90;92.60;;;;;;5072563;28;20046;-69
2021/09/30 04:38:52;;;;;;;4.07;2.00;;;3.90;93.70;;;;;;5075058;28;20107;-68
2021/09/30 04:41:19;;;;;;;3.45;1.80;;;3.90;92.40;;;;;;5074077;28;20016;-69
2021/09/30 04:43:47;;;;;;;7.40;1.80;;;4.10;93.30;;;;;;5070899;28;20500;-69
2021/09/30 04:46:15;;;;;;;4.55;1.88;;;4.00;93.70;;;;;;5072256;28;20028;-70
2021/09/30 04:48:41;;;;;;;6.40;2.22;;;3.90;93.70;;;;;;5068022;28;20021;-69
2021/09/30 04:51:07;;;;;;;5.20;2.13;;;3.90;93.30;;;;;;5073238;28;20367;-69
2021/09/30 04:53:33;;;;;;;5.40;1.60;;;3.90;93.80;;;;;;5070778;28;20036;-69
2021/09/30 04:55:59;;;;;;;8.02;2.20;;;4.00;92.90;;;;;;5064003;28;20024;-70
2021/09/30 04:58:25;;;;;;;3.72;1.90;;;3.90;93.70;;;;;;5065796;28;20029;-67
2021/09/30 05:00:51;;;;;;;4.35;2.05;;;3.80;93.50;;;;;;5069608;28;20048;-68
2021/09/30 05:03:20;;;;;;;5.03;1.92;;;3.90;91.80;;;;;;5067773;28;20098;-67
2021/09/30 05:05:47;;;;;;;8.25;2.25;;;4.00;92.90;;;;;;5064633;28;20055;-69
2021/09/30 05:08:13;;;;;;;4.70;1.73;;;4.00;93.40;;;;;;5060043;28;20092;-69
2021/09/30 05:10:40;;;;;;;7.88;2.30;;;3.90;93.10;;;;;;5068458;28;20508;-69
2021/09/30 05:13:15;;;;;;;4.13;2.17;;;3.80;93.40;;;;;;5069888;28;20052;-69
2021/09/30 05:15:41;;;;;;;4.68;2.10;;;3.80;93.30;;;;;;5074505;28;20025;-69
2021/09/30 05:18:07;;;;;;;3.65;1.73;;;3.80;93.10;;;;;;5074697;28;20048;-70
2021/09/30 05:20:33;;;;;;;6.22;2.00;;;3.80;93.30;;;;;;5074672;28;20429;-68
2021/09/30 05:22:59;;;;;;;5.05;2.17;;;3.80;93.10;;;;;;5074607;28;20039;-70
2021/09/30 05:25:25;;;;;;;3.28;1.75;;;3.80;93.30;;;;;;5073358;28;20036;-69
2021/09/30 05:27:54;;;;;;;3.83;1.83;;;3.80;92.70;;;;;;5074710;28;20047;-69
2021/09/30 05:30:21;;;;;;;5.63;2.00;;;3.80;93.10;;;;;;5066078;28;20427;-68
2021/09/30 05:32:50;;;;;;;3.92;1.85;;;3.80;92.70;;;;;;5073705;28;20064;-69
2021/09/30 05:35:19;;;;;;;3.70;1.88;;;3.90;92.40;;;;;;5074080;28;20111;-69
2021/09/30 05:37:45;;;;;;;4.60;2.10;;;4.00;92.60;;;;;;5074871;28;20028;-69
2021/09/30 05:40:14;;;;;;;10.48;3.40;;;4.00;92.70;;;;;;5073104;28;20444;-68
2021/09/30 05:42:46;;;;;;;5.38;1.83;;;4.00;92.50;;;;;;5074365;28;20032;-69
2021/09/30 05:45:16;;;;;;;4.20;1.98;;;4.10;92.00;;;;;;5072234;28;20095;-69
2021/09/30 05:47:43;;;;;;;4.43;1.80;;;4.20;91.90;;;;;;5073921;28;20028;-69
2021/09/30 05:50:10;;;;;;;4.50;1.70;;;4.30;92.40;;;;;;5074332;28;20100;-70
2021/09/30 05:52:36;;;;;;;6.85;2.10;;;4.20;92.80;;;;;;5073602;28;20028;-71
2021/09/30 05:55:03;;;;;;;3.50;1.80;;;4.10;93.10;;;;;;5060340;28;20040;-70
2021/09/30 05:57:33;;;;;;;5.78;1.52;;;4.10;92.70;;;;;;5053661;28;20025;-70
2021/09/30 06:00:12;;;;;;;5.13;1.77;;;4.20;92.30;;;;;;5070732;28;20036;-70
2021/09/30 06:13:28;;;;;;;9.95;2.17;;;4.50;92.20;;;;;;5066472;28;20058;-69
2021/09/30 06:15:56;;;;;;;7.00;2.10;;;4.60;92.00;;;;;;5074556;28;20070;-69
2021/09/30 06:18:22;;;;;;;6.97;2.13;;;4.80;92.10;;;;;;5073987;28;20114;-69
2021/09/30 06:20:48;;;;;;;6.13;1.98;;;4.90;91.80;;;;;;5074357;28;20028;-70
2021/09/30 06:23:13;;;;;;;5.75;2.17;;;5.00;92.20;;;;;;5074061;28;20077;-70
2021/09/30 06:25:39;;;;;;;8.70;1.80;;;5.20;92.00;;;;;;5073023;28;20383;-69
2021/09/30 06:28:05;;;;;;;5.90;2.22;;;5.30;92.40;;;;;;5074214;28;20020;-70
2021/09/30 06:30:31;;;;;;;6.90;2.42;;;5.40;92.80;;;;;;5074411;28;20025;-70
2021/09/30 06:32:57;;;;;;;6.68;2.10;;;5.50;92.90;;;;;;5073129;28;20032;-71
2021/09/30 06:35:23;;;;;;;6.53;1.90;;;5.60;93.10;;;;;;5074242;28;20025;-69
2021/09/30 06:37:52;;;;;;;6.45;1.98;;;5.60;93.10;;;;;;5074159;28;20491;-70
2021/09/30 06:40:18;;;;;;;14.50;4.20;;;5.80;93.10;;;;;;5073185;28;20033;-70
2021/09/30 06:42:44;;;;;;;8.00;3.55;;;5.90;93.60;;;;;;5073272;28;20122;-70
2021/09/30 06:45:10;;;;;;;4.57;1.90;;;6.00;94.10;;;;;;5073992;28;20108;-70
2021/09/30 06:47:38;;;;;;;7.50;2.00;;;6.00;94.50;;;;;;5073609;28;20104;-70
2021/09/30 06:50:06;;;;;;;4.53;2.25;;;6.00;94.60;;;;;;5073016;28;20081;-69
2021/09/30 06:52:33;;;;;;;5.95;1.77;;;6.10;94.90;;;;;;5073358;28;20028;-69
2021/09/30 06:54:59;;;;;;;8.25;1.63;;;6.10;95.90;;;;;;5073991;28;20473;-70
2021/09/30 06:57:28;;;;;;;4.68;1.50;;;6.10;96.40;;;;;;5075521;28;20029;-70
2021/09/30 06:59:56;;;;;;;6.05;1.55;;;6.20;96.70;;;;;;5077484;28;20021;-70
2021/09/30 07:02:23;;;;;;;7.03;1.70;;;6.30;96.90;;;;;;5076974;28;20031;-70
2021/09/30 07:04:49;;;;;;;5.30;1.65;;;6.50;96.70;;;;;;5077576;28;20028;-70
2021/09/30 07:07:15;;;;;;;4.63;1.50;;;6.60;97.20;;;;;;5077359;28;20082;-70
2021/09/30 07:09:41;;;;;;;5.03;1.90;;;6.70;97.10;;;;;;5076251;28;20020;-70
2021/09/30 07:12:07;;;;;;;5.35;1.85;;;6.90;97.60;;;;;;5075762;28;20082;-70
2021/09/30 07:14:33;;;;;;;5.68;1.50;;;7.00;98.00;;;;;;5077458;28;20040;-70
2021/09/30 07:16:58;;;;;;;7.15;1.85;;;7.20;98.00;;;;;;5077034;28;20040;-70
2021/09/30 07:19:24;;;;;;;3.25;1.38;;;7.40;98.00;;;;;;5076447;28;20665;-70
2021/09/30 07:21:50;;;;;;;7.90;1.30;;;7.50;98.00;;;;;;5076745;28;20119;-70
2021/09/30 07:24:16;;;;;;;6.25;2.35;;;7.60;98.00;;;;;;5076983;28;20111;-70
2021/09/30 07:26:42;;;;;;;4.47;1.30;;;7.80;98.00;;;;;;5075951;28;20321;-70
2021/09/30 07:29:07;;;;;;;5.78;1.45;;;7.90;98.00;;;;;;5076764;28;20024;-69
2021/09/30 07:31:33;;;;;;;5.22;1.27;;;8.00;98.00;;;;;;5076386;28;20056;-70
2021/09/30 07:33:59;;;;;;;4.88;1.25;;;8.00;98.00;;;;;;5076712;28;20025;-70
2021/09/30 07:36:25;;;;;;;4.03;1.40;;;8.10;98.00;;;;;;5077366;28;20036;-70
2021/09/30 07:38:50;;;;;;;4.82;1.20;;;8.40;98.00;;;;;;5077057;28;20112;-70
2021/09/30 07:41:16;;;;;;;3.17;1.20;;;8.60;98.00;;;;;;5075036;28;20402;-69
2021/09/30 07:43:42;;;;;;;5.32;1.45;;;8.80;98.00;;;;;;5076436;28;20031;-70
2021/09/30 07:46:08;;;;;;;2.72;0.93;;;9.10;98.00;;;;;;5076190;28;20059;-69
2021/09/30 07:48:33;;;;;;;4.55;1.10;;;9.30;98.00;;;;;;5076781;28;20020;-70
2021/09/30 07:51:00;;;;;;;4.68;1.13;;;9.50;98.00;;;;;;5075995;28;20029;-69
2021/09/30 07:53:28;;;;;;;5.63;1.10;;;9.70;98.00;;;;;;5075143;28;20029;-70
2021/09/30 07:55:54;;;;;;;3.60;1.08;;;9.80;98.00;;;;;;5075100;28;20028;-69
2021/09/30 07:58:20;;;;;;;4.63;1.52;;;10.00;98.00;;;;;;5076637;28;20113;-70
2021/09/30 08:00:48;;;;;;;3.83;1.17;;;10.20;97.40;;;;;;5075380;28;20151;-70
2021/09/30 08:03:14;;;;;;;2.42;1.10;;;10.50;96.50;;;;;;5075320;28;20089;-70
2021/09/30 08:05:39;;;;;;;2.08;0.90;;;10.80;96.40;;;;;;5076667;28;20107;-70
2021/09/30 08:08:09;;;;;;;5.38;0.90;;;10.90;93.90;;;;;;5075070;28;20052;-70
2021/09/30 08:10:36;;;;;;;3.63;0.98;;;11.40;92.80;;;;;;5075303;28;20016;-70
2021/09/30 08:13:02;;;;;;;2.88;0.80;;;12.70;94.80;;;;;;5075012;28;20107;-71
2021/09/30 08:15:29;;;;;;;2.70;0.60;;;13.40;86.30;;;;;;5076416;28;20020;-70
2021/09/30 08:17:55;;;;;;;4.80;1.27;;;14.30;90.40;;;;;;5071427;28;20051;-70
2021/09/30 08:20:21;;;;;;;5.38;1.02;;;13.70;81.50;;;;;;5071712;28;20029;-71
2021/09/30 08:22:48;;;;;;;2.30;0.73;;;13.10;83.40;;;;;;5075775;28;20028;-70
2021/09/30 08:25:14;;;;;;;7.47;0.90;;;12.80;83.30;;;;;;5073549;28;20036;-70
2021/09/30 08:27:40;;;;;;;13.93;1.77;;;13.10;83.40;;;;;;5075946;28;20059;-71
2021/09/30 08:30:06;;;;;;;5.63;1.20;;;13.90;80.80;;;;;;5075360;28;20378;-69
2021/09/30 08:32:32;;;;;;;3.20;0.57;;;14.50;79.10;;;;;;5075474;28;20033;-68
2021/09/30 08:34:58;;;;;;;1.80;0.60;;;15.30;75.90;;;;;;5075611;28;20070;-68
2021/09/30 08:37:23;;;;;;;3.72;0.85;;;16.00;74.10;;;;;;5075787;28;20417;-68
2021/09/30 08:39:49;;;;;;;2.67;0.70;;;16.50;72.30;;;;;;5075348;28;20028;-68
2021/09/30 08:42:15;;;;;;;3.25;0.85;;;15.70;74.60;;;;;;5074180;28;20037;-68
2021/09/30 08:44:41;;;;;;;2.20;0.60;;;16.10;74.00;;;;;;5074602;28;20115;-69
2021/09/30 08:47:07;;;;;;;4.22;0.70;;;16.60;73.40;;;;;;5075470;28;20031;-70
2021/09/30 08:49:33;;;;;;;2.17;0.80;;;16.80;72.80;;;;;;5075278;28;20021;-70
2021/09/30 08:51:59;;;;;;;4.20;0.80;;;17.20;70.60;;;;;;5075007;28;20295;-70
2021/09/30 08:54:25;;;;;;;3.63;0.73;;;17.70;70.40;;;;;;5075584;28;20115;-70
2021/09/30 08:56:53;;;;;;;4.80;0.90;;;18.40;67.90;;;;;;5074293;28;20448;-69
2021/09/30 08:59:26;;;;;;;4.40;1.23;;;18.80;65.10;;;;;;5074672;28;20325;-70
2021/09/30 09:02:14;;;;;;;3.35;0.63;;;18.00;64.80;;;;;;5063586;28;20024;-69
2021/09/30 09:04:55;;;;;;;4.47;0.75;;;17.20;68.10;;;;;;5075394;28;20021;-69
2021/09/30 09:07:26;;;;;;;2.78;0.70;;;17.00;67.80;;;;;;5075316;28;20052;-70
2021/09/30 09:09:53;;;;;;;6.00;1.23;;;17.20;67.90;;;;;;5075253;28;20051;-69
2021/09/30 09:12:20;;;;;;;3.65;0.70;;;17.20;66.50;;;;;;5073593;28;20033;-70
2021/09/30 09:14:46;;;;;;;1.17;0.57;;;16.80;68.40;;;;;;5075203;28;20020;-69
2021/09/30 09:17:14;;;;;;;2.15;0.50;;;15.70;68.30;;;;;;5074893;28;20036;-69
2021/09/30 09:19:53;;;;;;;3.78;0.70;;;15.30;71.10;;;;;;5074703;28;20024;-71
2021/09/30 09:22:30;;;;;;;3.20;0.68;;;14.70;71.20;;;;;;5074691;28;20024;-69
2021/09/30 09:25:09;;;;;;;4.72;0.93;;;14.10;73.90;;;;;;5075057;28;20032;-70
2021/09/30 09:27:53;;;;;;;4.20;0.80;;;14.80;73.50;;;;;;5072592;28;20021;-69
2021/09/30 09:30:49;;;;;;;3.13;0.75;;;16.40;70.20;;;;;;5074225;28;20024;-69
2021/09/30 09:33:30;;;;;;;4.97;0.90;;;18.00;66.50;;;;;;5074737;28;20021;-69
2021/09/30 09:36:10;;;;;;;3.65;1.05;;;19.60;62.20;;;;;;5074524;28;20378;-68
2021/09/30 09:38:54;;;;;;;5.03;0.95;;;19.90;60.70;;;;;;5073981;28;20107;-70
2021/09/30 09:41:35;;;;;;;3.90;0.75;;;19.00;61.20;;;;;;5073744;28;20044;-69
2021/09/30 09:44:04;;;;;;;7.05;0.80;;;18.30;62.10;;;;;;5074290;28;20328;-69
2021/09/30 09:46:37;;;;;;;4.65;1.00;;;17.60;64.00;;;;;;5074834;28;20024;-70
2021/09/30 09:49:08;;;;;;;1.75;0.63;;;17.10;64.60;;;;;;5073950;28;20409;-70
2021/09/30 09:51:43;;;;;;;6.63;0.88;;;17.30;66.30;;;;;;5074749;28;20027;-69
2021/09/30 09:54:18;;;;;;;1.77;0.70;;;17.10;64.80;;;;;;5074306;28;20028;-69
2021/09/30 09:56:44;;;;;;;4.00;0.60;;;17.10;67.30;;;;;;5071891;28;20017;-69
2021/09/30 09:59:11;;;;;;;4.38;1.10;;;18.00;64.90;;;;;;5073609;28;20116;-69
2021/09/30 10:01:38;;;;;;;3.90;0.60;;;18.90;63.40;;;;;;5069545;28;20402;-69
2021/09/30 10:04:04;;;;;;;2.05;0.70;;;19.40;62.40;;;;;;5060968;28;20115;-69
2021/09/30 10:06:32;;;;;;;4.57;0.80;;;19.60;61.00;;;;;;5067189;28;20105;-69
2021/09/30 10:09:03;;;;;;;3.15;0.80;;;18.70;62.40;;;;;;5074153;28;20048;-69
2021/09/30 10:11:29;;;;;;;6.22;1.38;;;18.00;63.70;;;;;;5073194;28;20016;-70
2021/09/30 10:13:57;;;;;;;1.58;0.65;;;17.80;62.90;;;;;;5074027;28;20086;-69
2021/09/30 10:16:27;;;;;;;2.72;0.70;;;17.40;65.10;;;;;;5074553;28;20032;-69
2021/09/30 10:19:05;;;;;;;4.75;0.80;;;17.40;63.80;;;;;;5074093;28;20044;-69
2021/09/30 10:21:32;;;;;;;3.30;0.60;;;17.80;65.20;;;;;;5074326;28;20028;-69
2021/09/30 10:24:19;;;;;;;3.85;0.93;;;18.60;62.20;;;;;;5073762;28;20032;-69
2021/09/30 10:27:00;;;;;;;4.00;0.80;;;19.50;63.20;;;;;;5072799;28;20047;-69
2021/09/30 10:29:43;;;;;;;3.08;0.80;;;20.20;61.60;;;;;;5074088;28;20025;-69
2021/09/30 10:32:09;;;;;;;3.30;0.60;;;21.20;58.40;;;;;;5076660;28;20127;-69
2021/09/30 10:34:40;;;;;;;2.58;0.60;;;21.60;56.30;;;;;;5078070;28;20056;-69
2021/09/30 10:37:27;;;;;;;5.40;0.85;;;21.10;57.50;;;;;;5077517;28;20059;-69
2021/09/30 10:40:16;;;;;;;3.15;0.60;;;20.70;59.00;;;;;;5076888;28;20024;-68
2021/09/30 10:42:53;;;;;;;2.22;0.70;;;21.40;58.40;;;;;;5077930;28;20313;-68
2021/09/30 10:45:23;;;;;;;4.72;0.85;;;21.80;57.20;;;;;;5069655;28;20025;-69
2021/09/30 10:47:49;;;;;;;2.63;0.70;;;21.50;57.00;;;;;;5077144;28;20115;-70
2021/09/30 10:50:16;;;;;;;6.13;0.90;;;21.10;57.70;;;;;;5077855;28;20166;-69
2021/09/30 10:52:53;;;;;;;3.58;0.82;;;21.00;59.60;;;;;;5077620;28;20480;-69
2021/09/30 10:55:22;;;;;;;3.42;0.80;;;21.30;58.70;;;;;;5076369;28;20746;-69
2021/09/30 10:57:58;;;;;;;1.80;0.70;;;21.00;56.00;;;;;;5076965;28;20025;-70
2021/09/30 11:00:30;;;;;;;2.88;0.90;;;20.70;58.30;;;;;;5077756;28;20410;-70
2021/09/30 11:03:13;;;;;;;5.32;1.05;;;20.70;57.50;;;;;;5077220;28;20032;-69
2021/09/30 11:05:42;;;;;;;2.80;0.70;;;20.80;58.40;;;;;;5076312;28;20051;-69
2021/09/30 11:08:27;;;;;;;4.80;0.60;;;20.40;58.10;;;;;;5077350;28;20027;-69
2021/09/30 11:11:05;;;;;;;3.13;0.90;;;20.30;60.40;;;;;;5076178;28;20028;-68
2021/09/30 11:13:44;;;;;;;3.05;0.80;;;20.20;59.80;;;;;;5062492;28;20429;-69
2021/09/30 11:16:18;;;;;;;6.85;0.90;;;20.20;59.00;;;;;;5074851;28;20032;-69
2021/09/30 11:18:50;;;;;;;;;;;20.20;58.70;;;;;;5070658;28;20059;-70
2021/09/30 11:21:28;;;;;;;3.80;0.95;;;19.70;61.20;;;;;;5076900;28;19908;-70
2021/09/30 11:24:14;;;;;;;2.88;0.85;;;18.70;60.40;;;;;;5077278;28;20386;-69
2021/09/30 11:26:51;;;;;;;2.47;0.70;;;18.40;63.00;;;;;;5059974;28;20037;-69
2021/09/30 11:29:19;;;;;;;2.30;0.70;;;18.50;65.50;;;;;;5077151;28;20317;-69
2021/09/30 11:31:46;;;;;;;3.38;0.70;;;18.80;64.90;;;;;;5077110;28;20078;-68
2021/09/30 11:34:29;;;;;;;3.03;0.63;;;18.90;62.10;;;;;;5077211;28;20056;-68
2021/09/30 11:36:58;;;;;;;2.05;0.60;;;19.40;60.30;;;;;;5069239;28;20112;-68
2021/09/30 11:39:33;;;;;;;3.38;0.75;;;19.70;62.10;;;;;;5076368;28;20028;-70
2021/09/30 11:41:59;;;;;;;2.90;0.70;;;20.30;63.50;;;;;;5075103;28;20023;-70
2021/09/30 11:44:30;;;;;;;3.97;0.70;;;21.10;61.20;;;;;;5076226;28;20162;-69
2021/09/30 11:46:59;;;;;;;3.28;0.70;;;20.70;59.50;;;;;;5075306;28;20060;-69
2021/09/30 11:49:25;;;;;;;3.38;0.80;;;20.10;61.00;;;;;;5076701;28;20028;-70
2021/09/30 11:51:54;;;;;;;4.97;0.95;;;19.90;61.50;;;;;;5076816;28;20399;-69
2021/09/30 11:54:34;;;;;;;4.03;0.80;;;20.40;61.60;;;;;;5075419;28;20033;-69
2021/09/30 11:57:01;;;;;;;7.05;1.30;;;19.80;61.70;;;;;;5074937;28;20037;-69
2021/09/30 11:59:30;;;;;;;4.65;1.00;;;19.00;62.50;;;;;;5076746;28;20063;-70
2021/09/30 12:01:57;;;;;;;4.20;0.80;;;18.70;62.60;;;;;;5074089;28;20086;-69
2021/09/30 12:04:44;;;;;;;4.43;0.85;;;18.50;64.70;;;;;;5075012;28;20102;-69
2021/09/30 12:07:21;;;;;;;4.55;0.70;;;18.50;64.20;;;;;;5076404;28;20033;-69
2021/09/30 12:10:00;;;;;;;3.88;0.82;;;18.50;64.50;;;;;;5076476;28;20016;-69
2021/09/30 12:12:32;;;;;;;5.82;0.93;;;18.20;64.50;;;;;;5076314;28;20039;-69
2021/09/30 12:14:58;;;;;;;2.10;0.80;;;18.20;63.60;;;;;;5075740;28;20040;-69
2021/09/30 12:17:29;;;;;;;3.30;1.15;;;18.20;62.80;;;;;;5076171;28;20041;-69
2021/09/30 12:19:57;;;;;;;2.40;0.63;;;17.90;63.30;;;;;;5076168;28;20020;-69
2021/09/30 12:22:26;;;;;;;1.48;0.60;;;18.20;64.70;;;;;;5075689;28;20086;-68
2021/09/30 12:25:19;;;;;;;5.45;0.95;;;18.30;63.90;;;;;;5075713;28;20372;-68
2021/09/30 12:27:50;;;;;;;2.95;0.80;;;18.50;63.90;;;;;;5071759;28;20429;-69
2021/09/30 12:30:19;;;;;;;2.92;0.70;;;18.60;63.80;;;;;;5058531;28;20079;-68
2021/09/30 12:32:47;;;;;;;4.13;0.82;;;18.50;63.40;;;;;;5076034;28;20039;-70
2021/09/30 12:35:51;;;;;;;3.42;0.90;;;18.00;63.30;;;;;;5075905;28;20024;-69
2021/09/30 12:38:20;;;;;;;4.82;0.80;;;17.60;65.00;;;;;;5033650;28;20056;-69
2021/09/30 12:40:53;;;;;;;4.50;0.93;;;17.50;67.10;;;;;;5032306;28;20033;-69
2021/09/30 12:43:29;;;;;;;5.20;0.80;;;18.00;65.90;;;;;;5056309;28;20037;-69
2021/09/30 12:46:06;;;;;;;3.92;0.70;;;18.20;64.00;;;;;;5074582;28;20308;-69
2021/09/30 12:48:33;;;;;;;4.68;1.00;;;18.20;62.20;;;;;;5075364;28;20020;-69
2021/09/30 12:51:13;;;;;;;5.22;1.02;;;17.70;67.00;;;;;;5075200;28;20048;-69
2021/09/30 12:53:48;;;;;;;2.95;0.80;;;17.90;63.70;;;;;;5075326;28;20020;-69
2021/09/30 12:56:17;;;;;;;2.25;0.80;;;17.20;63.90;;;;;;5074305;28;20114;-69
2021/09/30 12:58:46;;;;;;;3.47;1.00;;;17.20;64.10;;;;;;5075028;28;20290;-69
2021/09/30 13:01:26;;;;;;;4.30;0.77;;;17.60;66.20;;;;;;5070056;28;20024;-69
2021/09/30 13:04:11;;;;;;;3.47;0.98;;;17.80;66.40;;;;;;5054539;28;20032;-69
2021/09/30 13:06:51;;;;;;;3.00;0.90;;;18.00;67.20;;;;;;5055607;28;20021;-69
2021/09/30 13:09:22;;;;;;;4.53;1.10;;;17.90;64.70;;;;;;5060775;28;20444;-69
2021/09/30 13:12:09;;;;;;;2.30;0.77;;;17.70;64.30;;;;;;5073974;28;20453;-69
2021/09/30 13:14:43;;;;;;;4.00;1.08;;;17.10;65.00;;;;;;5075215;28;20456;-68
2021/09/30 13:17:09;;;;;;;;;;;16.70;65.30;;;;;;5075292;28;20052;-69
2021/09/30 13:19:52;;;;;;;3.05;0.68;;;16.80;67.80;;;;;;5074905;28;20410;-70
2021/09/30 13:22:28;;;;;;;2.80;0.70;;;17.20;65.20;;;;;;5074780;28;20468;-69
2021/09/30 13:24:55;;;;;;;1.98;0.60;;;17.30;66.40;;;;;;5075117;28;20032;-69
2021/09/30 13:27:27;;;;;;;3.83;0.77;;;17.40;65.30;;;;;;5073810;28;20161;-69
2021/09/30 13:29:56;;;;;;;4.30;0.63;;;17.10;65.40;;;;;;5074991;28;20021;-68
2021/09/30 13:32:26;;;;;;;2.83;0.75;;;17.00;66.30;;;;;;5074715;28;20020;-69
2021/09/30 13:34:56;;;;;;;3.40;0.70;;;16.80;66.00;;;;;;5075195;28;20313;-69
2021/09/30 13:37:23;;;;;;;2.17;0.80;;;16.50;67.10;;;;;;5074979;28;20082;-68
2021/09/30 13:39:49;;;;;;;3.88;1.00;;;16.60;67.10;;;;;;5074469;28;20029;-69
2021/09/30 13:42:15;;;;;;;3.33;0.82;;;16.70;68.10;;;;;;5063615;28;20025;-69
2021/09/30 13:44:41;;;;;;;2.13;0.65;;;16.90;68.60;;;;;;5054683;28;20025;-68
2021/09/30 13:47:08;;;;;;;3.40;0.98;;;16.70;65.80;;;;;;5055494;28;20017;-69
2021/09/30 13:49:34;;;;;;;3.65;0.90;;;16.70;68.20;;;;;;5054987;28;20025;-69
2021/09/30 13:52:00;;;;;;;4.97;0.70;;;17.10;66.70;;;;;;5061945;28;20066;-69
2021/09/30 13:54:26;;;;;;;4.78;0.80;;;17.40;66.10;;;;;;5073690;28;20523;-69
2021/09/30 13:56:51;;;;;;;4.45;0.80;;;17.70;66.90;;;;;;5073454;28;20052;-69
2021/09/30 13:59:17;;;;;;;3.63;0.90;;;17.50;65.90;;;;;;5074330;28;20029;-69
2021/09/30 14:01:42;;;;;;;4.03;0.90;;;17.90;66.80;;;;;;5074691;28;20009;-68
2021/09/30 14:04:08;;;;;;;5.75;0.90;;;18.20;65.20;;;;;;5062081;28;20032;-69
2021/09/30 14:06:34;;;;;;;4.00;1.05;;;18.10;64.60;;;;;;5056435;28;20432;-69
2021/09/30 14:08:59;;;;;;;4.10;0.82;;;18.40;64.40;;;;;;5077737;28;20440;-70
2021/09/30 14:11:25;;;;;;;2.80;0.95;;;18.20;64.60;;;;;;5077183;28;20399;-68
2021/09/30 14:13:55;;;;;;;3.13;1.00;;;17.70;64.70;;;;;;5078753;28;20092;-68
2021/09/30 14:16:22;;;;;;;4.22;1.58;;;17.60;65.20;;;;;;5078491;28;20317;-69
2021/09/30 14:18:49;;;;;;;3.38;0.88;;;17.70;64.10;;;;;;5078521;28;20072;-69
2021/09/30 14:21:18;;;;;;;4.07;1.10;;;17.40;64.70;;;;;;5077780;28;20319;-69
2021/09/30 14:23:46;;;;;;;3.35;0.82;;;17.10;64.50;;;;;;5078498;28;20055;-70
2021/09/30 14:26:12;;;;;;;4.88;0.90;;;16.70;66.50;;;;;;5076967;28;20059;-67
2021/09/30 14:28:37;;;;;;;4.07;0.90;;;16.70;66.30;;;;;;5078176;28;20117;-67
2021/09/30 14:31:03;;;;;;;3.25;1.02;;;17.00;66.20;;;;;;5077405;28;20029;-68
2021/09/30 14:33:32;;;;;;;3.40;0.80;;;17.20;65.20;;;;;;5078034;28;20032;-67
2021/09/30 14:35:58;;;;;;;2.65;0.80;;;17.60;65.70;;;;;;5077971;28;20440;-69
2021/09/30 14:38:27;;;;;;;3.45;0.80;;;18.00;64.70;;;;;;5078162;28;20035;-69
2021/09/30 14:40:53;;;;;;;4.13;1.00;;;18.00;63.60;;;;;;5076669;28;20036;-68
2021/09/30 14:43:21;;;;;;;3.88;1.00;;;17.40;65.40;;;;;;5077666;28;20609;-69
2021/09/30 14:45:47;;;;;;;3.00;0.88;;;17.00;64.50;;;;;;5077928;28;20032;-69
2021/09/30 14:48:13;;;;;;;4.07;1.00;;;17.00;65.20;;;;;;5077687;28;20020;-69
2021/09/30 14:50:40;;;;;;;2.55;0.80;;;17.60;65.50;;;;;;5077717;28;20436;-70
2021/09/30 14:53:07;;;;;;;3.30;0.82;;;18.40;65.50;;;;;;5077550;28;20036;-69
2021/09/30 14:55:36;;;;;;;3.60;0.90;;;19.50;63.90;;;;;;5076226;28;20035;-69
2021/09/30 14:58:03;;;;;;;1.63;0.70;;;19.10;60.60;;;;;;5077519;28;20037;-69
2021/09/30 15:00:28;;;;;;;4.13;0.90;;;18.50;63.30;;;;;;5077477;28;20085;-69
2021/09/30 15:02:54;;;;;;;4.85;0.73;;;18.30;63.10;;;;;;5077452;28;20360;-68
2021/09/30 15:05:20;;;;;;;4.00;1.02;;;18.40;65.70;;;;;;5075981;28;20373;-69
2021/09/30 15:07:45;;;;;;;3.25;0.75;;;18.50;63.50;;;;;;5069567;28;20028;-69
2021/09/30 15:10:11;;;;;;;4.13;0.90;;;18.50;63.20;;;;;;5075219;28;20309;-69
2021/09/30 15:12:37;;;;;;;2.83;0.73;;;18.80;63.50;;;;;;5067454;28;20031;-69
2021/09/30 15:15:07;;;;;;;4.55;0.75;;;19.10;62.10;;;;;;5077430;28;20036;-68
2021/09/30 15:22:38;;;;;;;3.38;0.77;;;19.90;61.10;;;;;;5065240;28;20025;-69
2021/09/30 15:25:06;;;;;;;2.65;0.80;;;20.00;60.40;;;;;;5075870;28;20579;-70
2021/09/30 15:27:34;;;;;;;2.33;0.75;;;19.50;59.60;;;;;;5076636;28;20016;-69
2021/09/30 15:30:00;;;;;;;4.40;0.82;;;19.20;60.40;;;;;;5077285;28;20065;-69
2021/09/30 15:32:27;;;;;;;2.65;0.82;;;19.40;60.60;;;;;;5076489;28;20423;-69
2021/09/30 15:34:53;;;;;;;4.75;0.93;;;19.90;61.50;;;;;;5077234;28;20028;-68
2021/09/30 15:37:19;;;;;;;2.80;0.70;;;19.90;60.60;;;;;;5076329;28;20047;-69
2021/09/30 15:39:45;;;;;;;3.65;0.90;;;19.80;62.00;;;;;;5076398;28;20094;-68
2021/09/30 15:42:16;;;;;;;2.30;0.90;;;19.30;62.20;;;;;;5064078;28;20115;-68
2021/09/30 15:44:42;;;;;;;6.45;2.05;;;19.10;64.30;;;;;;5056819;28;20021;-68
2021/09/30 15:47:08;;;;;;;3.20;0.77;;;18.70;64.10;;;;;;5056864;28;20032;-68
2021/09/30 15:49:34;;;;;;;3.80;0.90;;;19.10;61.90;;;;;;5075704;28;20032;-69